Hopewell, Canada
Current Conditions -  °F | °C
As of 3:33 AM on Thursday 18 Dec 2014 (Local Time) from CYHZ Reporting Station
Drizzle Drizzle  
Wind Chill: 36°   Ceiling: 200
Heat Index: 43°   Visibility: 0.75mi
Dew Point: 43°   Wind: 13mph
Humidity: 100%   Direction: 130°SE
Pressure: 29.39"   Gusts: NA
Location:  45.47°N, 62.7°W
Report Text: CYHZ 180733Z 13011KT 3/4SM R14/P6000FT/N -DZ BR OVC002 06/06 A2939 RMK SF8 SLP958
Loading
Personal Weather Stations






























Interactive Weather Map New forecast layout! Learn more

10-Day Weather Forecast

Advertisements
Track Severe Weather on mobile